Kingshill, Virgin Islands
Current Conditions -  °F | °C
As of 10:00 AM on Saturday 22 Nov 2014 (Local Time) from TUPJ Reporting Station
Rain Showers Rain Showers  
Wind Chill: 77°   Ceiling: 5500
Heat Index: 78°   Visibility: 6mi
Dew Point: 73°   Wind: 15mph
Humidity: 89%   Direction: 110°ESE
Pressure: 30.03"   Gusts: NA
Location:  17.72°N, 64.78°W
Report Text: TUPJ 221400Z 11013KT 9999 VCSH SCT018 BKN055 25/23 Q1017
Loading
Personal Weather Stations






























Interactive Weather Map New forecast layout! Learn more

10-Day Weather Forecast

Advertisements
Track Severe Weather on mobile